Time;durP1;ratioP1;P1;durP2;ratioP2;P2;SDS_P1;SDS_P2;PMS_P1;PMS_P2;Temp;Humidity;BMP_temperature;BMP_pressure;BME280_temperature;BME280_humidity;BME280_pressure;Samples;Min_cycle;Max_cycle;Signal;HPM_P1;HPM_P2
2022/07/21 00:01:06;;;;;;;3.35;1.70;;;;;;;20.03;42.50;94214.88;5123527;28;20023;-75
2022/07/21 00:03:32;;;;;;;8.25;1.83;;;;;;;20.00;42.77;94223.69;5123478;28;20024;-77
2022/07/21 00:05:57;;;;;;;3.97;1.60;;;;;;;19.98;42.47;94226.00;5123478;28;20310;-76
2022/07/21 00:08:23;;;;;;;5.35;2.00;;;;;;;19.95;43.01;94221.31;5123528;28;20019;-76
2022/07/21 00:10:48;;;;;;;7.47;1.25;;;;;;;19.94;40.95;94219.75;5123395;28;20082;-76
2022/07/21 00:13:14;;;;;;;3.53;1.67;;;;;;;19.90;41.11;94229.72;5123289;28;20019;-76
2022/07/21 00:15:39;;;;;;;4.55;1.80;;;;;;;19.90;42.15;94224.31;5123419;28;20328;-76
2022/07/21 00:18:06;;;;;;;9.60;2.08;;;;;;;19.87;41.88;94227.78;5123107;28;20043;-76
2022/07/21 00:20:32;;;;;;;5.18;2.30;;;;;;;19.86;42.85;94218.84;5123267;28;20023;-77
2022/07/21 00:22:58;;;;;;;5.32;2.10;;;;;;;19.82;43.00;94229.63;5123192;28;20035;-76
2022/07/21 00:25:23;;;;;;;4.18;2.40;;;;;;;19.79;43.39;94233.06;5123365;28;20024;-77
2022/07/21 00:27:49;;;;;;;4.53;2.42;;;;;;;19.77;43.62;94234.56;5123231;28;20084;-76
2022/07/21 00:30:15;;;;;;;4.00;2.17;;;;;;;19.75;43.81;94232.22;5123238;28;20310;-76
2022/07/21 00:32:41;;;;;;;10.68;3.05;;;;;;;19.76;44.10;94230.28;5123169;28;20019;-76
2022/07/21 00:35:08;;;;;;;10.02;2.97;;;;;;;19.72;44.78;94235.66;5123115;28;20230;-76
2022/07/21 00:37:33;;;;;;;7.13;2.28;;;;;;;19.68;45.03;94229.34;5123006;28;20031;-76
2022/07/21 00:39:59;;;;;;;6.47;2.05;;;;;;;19.64;45.20;94229.31;5123000;28;20031;-76
2022/07/21 00:42:28;;;;;;;6.65;2.47;;;;;;;19.63;45.57;94221.56;5123048;28;20068;-76
2022/07/21 00:44:54;;;;;;;5.07;2.33;;;;;;;19.59;45.78;94223.41;5122905;28;20102;-76
2022/07/21 00:47:20;;;;;;;7.07;2.15;;;;;;;19.56;46.50;94226.84;5123136;28;20046;-76
2022/07/21 00:49:47;;;;;;;4.13;2.03;;;;;;;19.51;46.94;94230.63;5122963;28;20034;-76
2022/07/21 00:52:12;;;;;;;4.05;2.38;;;;;;;19.43;47.24;94223.53;5123034;28;20080;-76
2022/07/21 00:54:38;;;;;;;7.53;2.20;;;;;;;19.41;47.22;94228.53;5122903;28;20023;-76
2022/07/21 00:57:04;;;;;;;8.10;2.35;;;;;;;19.37;47.64;94239.25;5123194;28;20050;-76
2022/07/21 00:59:30;;;;;;;6.28;2.67;;;;;;;19.35;47.54;94232.66;5122907;28;20240;-76
2022/07/21 01:01:56;;;;;;;3.95;1.90;;;;;;;19.27;47.78;94226.34;5122677;28;20073;-75
2022/07/21 01:04:21;;;;;;;6.50;2.13;;;;;;;19.22;47.56;94224.72;5122862;28;20023;-75
2022/07/21 01:06:47;;;;;;;7.00;2.22;;;;;;;19.13;47.90;94223.38;5123768;28;20060;-75
2022/07/21 01:09:13;;;;;;;5.18;1.98;;;;;;;19.11;48.37;94222.97;5126874;28;20023;-76
2022/07/21 01:11:39;;;;;;;10.45;3.15;;;;;;;19.07;48.51;94214.81;5126604;28;20053;-76
2022/07/21 01:14:05;;;;;;;6.80;1.95;;;;;;;18.99;48.61;94215.78;5126944;28;20019;-75
2022/07/21 01:16:31;;;;;;;4.47;1.92;;;;;;;18.90;48.44;94207.94;5126528;28;20233;-76
2022/07/21 01:18:56;;;;;;;9.38;2.53;;;;;;;18.84;48.60;94198.56;5126571;28;20027;-76
2022/07/21 01:21:37;;;;;;;6.00;2.10;;;;;;;18.82;48.80;94207.00;5126484;28;20091;-75
2022/07/21 01:24:04;;;;;;;3.63;1.77;;;;;;;18.78;48.94;94194.53;5126660;28;20061;-75
2022/07/21 01:26:30;;;;;;;5.82;2.28;;;;;;;18.75;48.74;94197.97;5126524;28;20258;-75
2022/07/21 01:28:57;;;;;;;5.50;2.00;;;;;;;18.75;48.66;94203.38;5126568;28;20047;-75
2022/07/21 01:31:23;;;;;;;5.85;1.95;;;;;;;18.72;48.58;94201.38;5126337;28;20221;-75
2022/07/21 01:33:49;;;;;;;3.30;1.70;;;;;;;18.71;48.42;94211.41;5126113;28;20324;-75
2022/07/21 01:36:15;;;;;;;2.70;1.60;;;;;;;18.72;48.83;94201.38;5126263;28;20035;-76
2022/07/21 01:41:31;;;;;;;5.97;1.98;;;;;;;18.62;49.20;94195.41;5126134;28;20029;-76
2022/07/21 01:43:57;;;;;;;;;;;;;;;18.54;49.55;94201.81;5126614;28;20310;-76
2022/07/21 01:46:23;;;;;;;2.42;1.45;;;;;;;18.49;49.86;94198.63;5125984;28;19911;-76
2022/07/21 01:48:49;;;;;;;3.92;1.83;;;;;;;18.47;49.76;94201.66;5124763;28;20016;-76
2022/07/21 01:51:14;;;;;;;2.58;1.58;;;;;;;18.43;49.95;94195.41;5126132;28;20015;-75
2022/07/21 01:53:40;;;;;;;11.20;1.88;;;;;;;18.43;50.24;94192.72;5125933;28;20210;-75
2022/07/21 01:56:07;;;;;;;5.47;1.70;;;;;;;18.43;49.98;94203.50;5126053;28;20042;-75
2022/07/21 01:58:33;;;;;;;4.25;1.80;;;;;;;18.39;49.95;94200.72;5125970;28;20038;-75
2022/07/21 02:00:58;;;;;;;6.55;1.55;;;;;;;18.34;49.33;94195.63;5125611;28;20043;-75
2022/07/21 02:03:24;;;;;;;2.50;1.50;;;;;;;18.32;49.00;94189.78;5125779;28;20048;-75
2022/07/21 02:05:50;;;;;;;5.93;1.73;;;;;;;18.33;48.28;94196.75;5125919;28;20027;-76
2022/07/21 02:08:15;;;;;;;4.32;1.90;;;;;;;18.33;47.62;94195.97;5125718;27;20256;-76
2022/07/21 02:10:41;;;;;;;4.93;2.10;;;;;;;18.34;47.70;94198.31;5125671;28;20008;-76
2022/07/21 02:13:07;;;;;;;5.95;1.80;;;;;;;18.37;48.67;94202.22;5125651;28;20073;-76
2022/07/21 02:15:33;;;;;;;8.80;2.00;;;;;;;18.38;48.73;94204.56;5125711;28;20099;-76
2022/07/21 02:17:59;;;;;;;4.70;1.95;;;;;;;18.37;49.67;94203.00;5124891;28;20246;-76
2022/07/21 02:20:25;;;;;;;3.78;1.73;;;;;;;18.35;49.47;94202.56;5125001;28;20027;-75
2022/07/21 02:22:50;;;;;;;3.30;1.80;;;;;;;18.31;49.92;94190.16;5125432;28;20039;-75
2022/07/21 02:25:16;;;;;;;4.43;1.70;;;;;;;18.29;50.00;94195.09;5125336;28;20032;-75
2022/07/21 02:27:43;;;;;;;5.47;1.95;;;;;;;18.27;50.19;94197.38;5125170;28;20205;-76
2022/07/21 02:30:10;;;;;;;8.68;3.33;;;;;;;18.21;50.38;94189.56;5125272;28;20027;-75
2022/07/21 02:32:35;;;;;;;5.00;1.90;;;;;;;18.21;50.36;94188.78;5125364;28;20047;-75
2022/07/21 02:35:01;;;;;;;11.13;3.58;;;;;;;18.20;50.13;94189.94;5125114;27;20069;-76
2022/07/21 02:37:28;;;;;;;4.35;2.30;;;;;;;18.21;50.72;94199.56;5125194;28;20024;-76
2022/07/21 02:39:53;;;;;;;8.35;2.80;;;;;;;18.19;50.84;94199.91;5125036;28;20019;-76
2022/07/21 02:42:18;;;;;;;6.72;2.60;;;;;;;18.14;50.83;94194.03;5125046;28;20087;-76
2022/07/21 02:44:44;;;;;;;11.45;2.33;;;;;;;18.11;49.84;94197.41;5124939;28;20039;-76
2022/07/21 02:47:09;;;;;;;10.70;2.60;;;;;;;18.10;49.71;94183.16;5125025;28;20016;-76
2022/07/21 02:49:35;;;;;;;4.97;2.08;;;;;;;18.09;51.16;94180.81;5124894;28;20051;-76
2022/07/21 02:52:00;;;;;;;4.68;2.10;;;;;;;18.05;50.53;94183.41;5124813;28;20025;-76
2022/07/21 02:54:26;;;;;;;7.28;3.22;;;;;;;18.04;50.87;94184.56;5124767;27;20046;-76
2022/07/21 02:56:51;;;;;;;7.78;2.30;;;;;;;18.03;51.32;94191.88;5124895;28;20018;-76
2022/07/21 02:59:16;;;;;;;10.00;2.03;;;;;;;18.00;51.64;94181.00;5124892;28;20031;-77
2022/07/21 03:01:42;;;;;;;5.53;2.13;;;;;;;17.96;51.74;94188.25;5124423;28;20023;-76
2022/07/21 03:04:08;;;;;;;4.25;2.25;;;;;;;17.89;52.27;94182.69;5124870;28;20026;-76
2022/07/21 03:06:33;;;;;;;4.13;2.20;;;;;;;17.89;51.82;94183.47;5124629;28;20270;-76
2022/07/21 03:08:58;;;;;;;4.50;2.00;;;;;;;17.87;52.28;94190.34;5124345;28;20315;-76
2022/07/21 03:11:25;;;;;;;3.90;2.15;;;;;;;17.84;51.95;94192.59;5124508;28;20022;-76
2022/07/21 03:13:50;;;;;;;6.97;2.08;;;;;;;17.81;52.07;94193.28;5124587;28;20248;-76
2022/07/21 03:16:16;;;;;;;6.32;2.20;;;;;;;17.83;52.73;94195.66;5124490;28;20051;-76
2022/07/21 03:18:41;;;;;;;4.85;2.10;;;;;;;17.82;51.30;94194.84;5124229;28;20024;-76
2022/07/21 03:21:08;;;;;;;6.65;3.10;;;;;;;17.83;51.00;94201.84;5124339;28;20068;-76
2022/07/21 03:23:33;;;;;;;7.35;2.78;;;;;;;17.83;51.09;94196.44;5124466;28;20047;-76
2022/07/21 03:25:59;;;;;;;10.93;3.00;;;;;;;17.87;51.00;94201.94;5124029;27;20131;-74
2022/07/21 03:28:24;;;;;;;7.47;2.00;;;;;;;17.90;51.37;94205.81;5124046;28;20076;-74
2022/07/21 03:30:50;;;;;;;6.72;2.38;;;;;;;17.91;51.67;94207.38;5123987;28;20016;-74
2022/07/21 03:33:15;;;;;;;6.45;2.15;;;;;;;17.92;52.09;94198.16;5123978;28;20047;-74
2022/07/21 03:35:42;;;;;;;6.55;2.35;;;;;;;17.91;52.60;94207.38;5123805;28;20217;-76
2022/07/21 03:38:07;;;;;;;9.63;3.22;;;;;;;17.89;51.97;94204.25;5124216;28;20317;-77
2022/07/21 03:40:35;;;;;;;8.45;3.53;;;;;;;17.89;52.17;94207.75;5123885;28;20027;-77
2022/07/21 03:43:03;;;;;;;4.88;2.70;;;;;;;17.92;52.51;94203.56;5123683;28;20019;-77
2022/07/21 03:45:30;;;;;;;8.98;2.55;;;;;;;17.95;53.47;94200.16;5123944;28;20060;-77
2022/07/21 03:47:57;;;;;;;7.25;2.63;;;;;;;17.96;53.44;94205.19;5123848;28;20019;-77
2022/07/21 03:50:23;;;;;;;5.72;2.40;;;;;;;18.01;52.95;94196.84;5123625;28;20008;-74
2022/07/21 03:52:48;;;;;;;9.25;3.63;;;;;;;18.03;52.89;94205.38;5123771;28;20065;-76
2022/07/21 03:55:17;;;;;;;8.50;2.97;;;;;;;18.09;53.15;94207.78;5123686;28;20100;-77
2022/07/21 03:57:54;;;;;;;5.93;3.35;;;;;;;18.14;53.42;94210.22;5123592;28;20035;-76
2022/07/21 04:00:35;;;;;;;4.45;2.78;;;;;;;18.18;53.96;94211.09;5123607;28;20031;-77
2022/07/21 04:03:01;;;;;;;13.82;3.33;;;;;;;18.20;52.99;94220.38;5123457;28;20027;-76
2022/07/21 04:05:28;;;;;;;6.45;3.70;;;;;;;18.23;52.46;94208.88;5123586;28;20091;-76
2022/07/21 04:07:54;;;;;;;7.85;3.45;;;;;;;18.27;52.46;94218.97;5123366;27;20019;-76
2022/07/21 04:10:26;;;;;;;5.00;2.75;;;;;;;18.32;52.38;94215.97;5123593;28;20115;-76
2022/07/21 04:12:52;;;;;;;14.50;3.55;;;;;;;18.32;52.05;94211.38;5123359;28;20024;-76
2022/07/21 04:15:18;;;;;;;7.10;3.40;;;;;;;18.32;51.76;94215.97;5123425;28;20028;-76
2022/07/21 04:17:44;;;;;;;8.35;3.65;;;;;;;18.37;51.67;94204.91;5123098;28;20067;-76
2022/07/21 04:20:11;;;;;;;10.95;3.60;;;;;;;18.45;51.41;94214.72;5123049;28;20034;-76
2022/07/21 04:22:37;;;;;;;11.35;3.97;;;;;;;18.49;51.84;94220.97;5123255;28;20273;-76
2022/07/21 04:25:05;;;;;;;8.98;3.30;;;;;;;18.55;51.89;94211.47;5123202;28;20034;-76
2022/07/21 04:27:30;;;;;;;5.85;2.72;;;;;;;18.54;51.60;94209.91;5123117;28;20047;-76
2022/07/21 04:29:56;;;;;;;9.35;3.67;;;;;;;18.56;51.81;94210.34;5123245;28;20310;-76
2022/07/21 04:32:22;;;;;;;7.95;3.45;;;;;;;18.58;52.15;94201.88;5123186;28;20036;-76
2022/07/21 04:34:47;;;;;;;7.03;3.70;;;;;;;18.57;52.45;94213.81;5122904;28;20331;-76
2022/07/21 04:37:13;;;;;;;8.95;4.00;;;;;;;18.53;52.95;94216.44;5123146;28;20366;-76
2022/07/21 04:39:38;;;;;;;12.68;3.58;;;;;;;18.43;52.48;94220.47;5123132;28;20028;-76
2022/07/21 04:42:04;;;;;;;9.38;3.72;;;;;;;18.48;52.67;94213.22;5124448;28;20324;-76
2022/07/21 04:44:29;;;;;;;16.05;3.50;;;;;;;18.51;51.65;94228.72;5127075;28;20023;-76
2022/07/21 04:46:55;;;;;;;11.27;3.67;;;;;;;18.57;52.04;94222.69;5127337;28;20020;-76
2022/07/21 04:49:20;;;;;;;8.07;3.60;;;;;;;18.57;53.20;94222.69;5127299;28;20019;-76
2022/07/21 04:51:46;;;;;;;13.98;3.50;;;;;;;18.62;53.95;94230.53;5127040;28;20087;-76
2022/07/21 04:54:13;;;;;;;8.48;2.90;;;;;;;18.66;51.79;94235.97;5127361;28;20023;-76
2022/07/21 04:56:42;;;;;;;13.95;3.47;;;;;;;18.72;51.00;94231.84;5127361;28;20221;-77
2022/07/21 04:59:08;;;;;;;11.95;3.60;;;;;;;18.79;51.06;94218.53;5127112;28;20092;-76
2022/07/21 05:01:35;;;;;;;12.32;2.88;;;;;;;18.83;51.21;94226.72;5126954;28;20031;-76
2022/07/21 05:04:00;;;;;;;14.30;3.53;;;;;;;18.90;50.21;94229.53;5126910;28;20090;-76
2022/07/21 05:06:25;;;;;;;7.72;3.45;;;;;;;19.00;50.54;94238.97;5126857;28;20038;-76
2022/07/21 05:08:51;;;;;;;11.48;3.97;;;;;;;19.09;50.45;94228.75;5126835;28;20031;-76
2022/07/21 05:11:17;;;;;;;10.70;4.00;;;;;;;19.17;50.56;94233.13;5126958;28;20337;-76
2022/07/21 05:13:42;;;;;;;14.38;3.53;;;;;;;19.27;49.28;94229.03;5126962;28;20027;-76
2022/07/21 05:16:08;;;;;;;19.50;3.47;;;;;;;19.34;49.51;94221.06;5126716;28;20360;-76
2022/07/21 05:18:34;;;;;;;6.05;3.08;;;;;;;19.36;50.47;94223.44;5126746;28;20028;-76
2022/07/21 05:20:59;;;;;;;12.95;3.88;;;;;;;19.41;50.27;94221.19;5126467;28;20054;-75
2022/07/21 05:23:24;;;;;;;11.05;3.22;;;;;;;19.56;50.99;94221.44;5126550;28;20301;-76
2022/07/21 05:25:50;;;;;;;11.93;3.72;;;;;;;19.63;49.58;94225.03;5126446;28;20031;-77
2022/07/21 05:28:15;;;;;;;12.35;4.03;;;;;;;19.73;48.21;94231.03;5126533;28;20027;-76
2022/07/21 05:30:41;;;;;;;9.35;3.70;;;;;;;19.82;48.94;94229.63;5126695;28;20030;-76
2022/07/21 05:33:06;;;;;;;14.60;3.60;;;;;;;19.84;49.24;94227.34;5126338;28;20023;-77
2022/07/21 05:35:32;;;;;;;21.15;4.13;;;;;;;19.87;48.67;94231.25;5126341;28;20028;-77
2022/07/21 05:37:57;;;;;;;8.43;3.80;;;;;;;19.84;48.34;94232.75;5126438;28;20019;-77
2022/07/21 05:40:23;;;;;;;14.23;3.97;;;;;;;19.88;48.04;94234.72;5126034;28;20313;-77
2022/07/21 05:42:48;;;;;;;17.52;4.28;;;;;;;19.93;47.82;94234.44;5126140;28;20042;-76
2022/07/21 05:45:14;;;;;;;15.98;4.55;;;;;;;19.90;48.07;94221.63;5126333;28;20198;-76
2022/07/21 05:47:41;;;;;;;15.43;4.20;;;;;;;19.98;47.99;94242.22;5126226;28;20306;-77
2022/07/21 05:50:07;;;;;;;10.48;4.32;;;;;;;19.99;47.86;94238.38;5126043;28;20249;-76
2022/07/21 05:52:32;;;;;;;16.45;4.03;;;;;;;20.02;48.03;94238.41;5125810;28;20016;-77
2022/07/21 05:54:58;;;;;;;24.35;4.25;;;;;;;20.10;47.90;94233.91;5125343;28;20023;-77
2022/07/21 05:57:23;;;;;;;19.70;6.30;;;;;;;20.07;47.80;94234.63;5126108;28;20202;-77
2022/07/21 05:59:49;;;;;;;10.68;4.30;;;;;;;20.22;47.44;94230.97;5126205;27;20025;-77
2022/07/21 06:02:15;;;;;;;18.70;4.18;;;;;;;20.29;48.32;94234.94;5126613;28;20022;-77
2022/07/21 06:04:40;;;;;;;8.95;3.60;;;;;;;20.31;48.14;94238.06;5126294;28;20369;-76
2022/07/21 06:07:06;;;;;;;18.20;5.53;;;;;;;20.32;48.71;94226.88;5126158;28;20349;-76
2022/07/21 06:09:31;;;;;;;15.88;4.55;;;;;;;20.39;48.54;94235.09;5125872;28;20065;-76
2022/07/21 06:11:57;;;;;;;14.07;4.50;;;;;;;20.47;48.92;94233.25;5125943;28;20035;-76
2022/07/21 06:14:22;;;;;;;9.88;3.97;;;;;;;20.54;47.88;94236.06;5125210;28;20015;-76
2022/07/21 06:16:48;;;;;;;11.43;4.18;;;;;;;20.62;48.45;94228.84;5125414;28;20069;-76
2022/07/21 06:19:14;;;;;;;20.00;4.22;;;;;;;20.69;47.51;94222.72;5124575;28;20019;-76
2022/07/21 06:21:40;;;;;;;19.60;6.15;;;;;;;20.80;47.69;94224.44;5125510;28;20019;-76
2022/07/21 06:24:07;;;;;;;14.05;3.65;;;;;;;20.91;47.52;94227.25;5125528;28;20076;-76
2022/07/21 06:26:32;;;;;;;10.68;3.95;;;;;;;20.99;46.99;94234.31;5125427;28;20015;-76
2022/07/21 06:28:58;;;;;;;11.52;3.60;;;;;;;21.03;47.00;94218.88;5125312;27;20019;-76
2022/07/21 06:31:23;;;;;;;18.17;4.25;;;;;;;21.14;46.71;94223.63;5125475;28;20031;-76
2022/07/21 06:33:49;;;;;;;12.48;3.78;;;;;;;21.25;46.82;94227.25;5125194;28;20316;-76
2022/07/21 06:36:14;;;;;;;20.45;3.72;;;;;;;21.28;46.44;94221.06;5125257;28;20039;-76
2022/07/21 06:38:40;;;;;;;12.05;4.28;;;;;;;21.39;47.01;94216.53;5125103;28;20028;-76
2022/07/21 06:41:06;;;;;;;12.48;4.13;;;;;;;21.52;45.94;94217.06;5125277;28;20060;-76
2022/07/21 06:43:32;;;;;;;14.60;3.80;;;;;;;21.61;45.10;94222.94;5124936;28;20043;-76
2022/07/21 06:45:58;;;;;;;10.38;3.83;;;;;;;21.77;45.58;94216.50;5124925;28;20023;-76
2022/07/21 06:48:24;;;;;;;12.23;4.32;;;;;;;21.87;44.36;94220.44;5124903;28;20050;-76
2022/07/21 06:50:51;;;;;;;15.48;3.83;;;;;;;21.98;43.94;94216.66;5125058;28;20011;-76
2022/07/21 06:53:17;;;;;;;16.60;3.58;;;;;;;22.00;44.01;94219.78;5125558;28;20214;-77
2022/07/21 06:55:42;;;;;;;8.65;4.00;;;;;;;22.13;43.38;94217.53;5125112;28;20061;-76
2022/07/21 06:58:09;;;;;;;10.68;3.67;;;;;;;22.04;44.29;94222.50;5125047;28;20268;-77
2022/07/21 07:00:35;;;;;;;17.15;4.00;;;;;;;22.13;43.57;94214.03;5124755;28;20047;-77
2022/07/21 07:03:00;;;;;;;15.45;3.53;;;;;;;22.27;43.62;94216.06;5124812;28;20031;-77
2022/07/21 07:05:28;;;;;;;17.38;3.92;;;;;;;22.40;43.38;94206.47;5124581;27;20153;-77
2022/07/21 07:07:53;;;;;;;18.58;3.67;;;;;;;22.51;43.25;94212.75;5124701;28;20019;-77
2022/07/21 07:10:19;;;;;;;7.03;3.50;;;;;;;22.59;43.22;94217.06;5124589;28;20039;-77
2022/07/21 07:12:44;;;;;;;19.40;4.65;;;;;;;22.77;42.89;94213.63;5124757;28;20110;-77
2022/07/21 07:15:10;;;;;;;7.63;2.80;;;;;;;22.96;41.79;94207.88;5124423;28;20125;-77
2022/07/21 07:17:35;;;;;;;13.98;2.92;;;;;;;23.12;42.14;94206.78;5124323;28;20477;-77
2022/07/21 07:20:01;;;;;;;9.98;3.38;;;;;;;23.29;40.89;94202.56;5124287;28;20020;-77
2022/07/21 07:22:26;;;;;;;19.98;3.83;;;;;;;23.41;40.67;94202.97;5124418;27;20019;-77
2022/07/21 07:24:52;;;;;;;14.18;3.60;;;;;;;23.62;40.43;94204.13;5124563;28;20039;-77
2022/07/21 07:27:17;;;;;;;6.75;3.00;;;;;;;23.79;40.27;94197.16;5124277;28;20024;-76
2022/07/21 07:29:43;;;;;;;11.52;2.83;;;;;;;23.92;39.90;94200.28;5124337;28;20054;-77
2022/07/21 07:32:08;;;;;;;13.55;2.75;;;;;;;24.11;39.34;94196.38;5123994;28;20019;-77
2022/07/21 07:34:34;;;;;;;12.77;2.83;;;;;;;24.31;38.72;94188.56;5124109;28;20023;-76
2022/07/21 07:36:59;;;;;;;10.90;2.85;;;;;;;24.54;38.84;94196.31;5123933;28;20094;-76
2022/07/21 07:39:25;;;;;;;7.20;2.70;;;;;;;24.65;37.82;94190.81;5124159;28;20023;-76
2022/07/21 07:41:50;;;;;;;9.10;3.10;;;;;;;24.85;38.25;94189.16;5123976;27;20087;-77
2022/07/21 07:44:16;;;;;;;20.23;2.65;;;;;;;24.95;37.91;94185.66;5123958;28;20027;-77
2022/07/21 07:46:41;;;;;;;12.52;2.83;;;;;;;25.14;35.75;94184.38;5123911;28;20027;-76
2022/07/21 07:49:08;;;;;;;6.18;2.05;;;;;;;25.22;35.21;94185.13;5124036;28;20079;-76
2022/07/21 07:51:33;;;;;;;6.63;2.05;;;;;;;25.30;35.36;94186.66;5123714;28;20077;-76
2022/07/21 07:54:02;;;;;;;9.98;2.30;;;;;;;25.39;36.43;94184.22;5123859;28;20306;-77
2022/07/21 07:56:27;;;;;;;7.75;2.08;;;;;;;25.55;36.54;94185.69;5123859;28;20027;-77
2022/07/21 07:58:52;;;;;;;5.13;2.35;;;;;;;25.52;36.55;94178.31;5123837;28;20019;-76
2022/07/21 08:01:18;;;;;;;8.43;2.65;;;;;;;25.54;35.60;94173.22;5123184;28;20030;-76
2022/07/21 08:03:43;;;;;;;11.30;2.28;;;;;;;25.62;36.50;94171.97;5123713;28;20066;-76
2022/07/21 08:06:09;;;;;;;11.00;2.22;;;;;;;25.70;37.28;94162.56;5123634;28;20023;-76
2022/07/21 08:08:35;;;;;;;5.90;2.15;;;;;;;25.83;36.87;94168.31;5123298;28;20046;-76
2022/07/21 08:11:00;;;;;;;4.85;2.15;;;;;;;25.91;35.01;94169.03;5123620;28;20060;-76
2022/07/21 08:13:26;;;;;;;5.97;2.40;;;;;;;25.98;35.42;94169.00;5123555;28;20031;-76
2022/07/21 08:15:52;;;;;;;4.70;1.92;;;;;;;25.99;34.40;94165.88;5122666;28;20028;-75
2022/07/21 08:18:18;;;;;;;4.70;2.20;;;;;;;25.92;35.04;94171.38;5123132;28;20310;-76
2022/07/21 08:20:46;;;;;;;4.43;2.10;;;;;;;25.90;35.48;94159.31;5123362;28;20031;-76
2022/07/21 08:23:12;;;;;;;6.07;1.80;;;;;;;25.96;35.60;94161.19;5123109;28;20034;-75
2022/07/21 08:25:37;;;;;;;7.78;2.50;;;;;;;26.09;35.96;94160.69;5123181;28;20103;-76
2022/07/21 08:28:03;;;;;;;6.53;2.35;;;;;;;26.26;34.18;94167.94;5123161;28;20095;-76
2022/07/21 08:30:29;;;;;;;7.60;2.22;;;;;;;26.40;33.73;94162.31;5123061;28;20027;-76
2022/07/21 08:32:54;;;;;;;7.72;2.72;;;;;;;26.49;33.17;94169.25;5123087;28;20019;-76
2022/07/21 08:35:20;;;;;;;6.10;2.40;;;;;;;26.54;33.49;94164.13;5123091;28;20023;-76
2022/07/21 08:37:53;;;;;;;4.68;2.47;;;;;;;26.60;32.02;94165.25;5123320;28;20217;-76
2022/07/21 08:40:22;;;;;;;5.18;2.20;;;;;;;26.70;32.60;94160.81;5122748;28;20019;-76
2022/07/21 08:42:48;;;;;;;7.20;2.08;;;;;;;26.71;31.65;94169.81;5123156;28;20149;-76
2022/07/21 08:45:14;;;;;;;7.40;2.00;;;;;;;26.82;31.88;94156.78;5123192;28;20023;-76
2022/07/21 08:47:40;;;;;;;6.13;1.83;;;;;;;26.92;31.32;94147.66;5122843;28;20030;-76
2022/07/21 08:50:09;;;;;;;5.07;1.88;;;;;;;27.01;31.08;94156.16;5123267;28;20020;-76
2022/07/21 08:52:35;;;;;;;4.00;1.88;;;;;;;26.99;31.83;94155.03;5122840;28;20039;-76
2022/07/21 08:55:01;;;;;;;4.57;1.98;;;;;;;26.98;32.33;94150.72;5122766;28;20027;-76
2022/07/21 08:57:26;;;;;;;5.47;1.92;;;;;;;27.00;30.47;94151.84;5122840;28;20043;-76
2022/07/21 08:59:52;;;;;;;8.98;2.10;;;;;;;27.04;32.34;94142.84;5122818;28;20328;-76
2022/07/21 09:02:35;;;;;;;6.78;2.30;;;;;;;27.16;31.36;94153.22;5123088;28;20034;-76
2022/07/21 09:05:00;;;;;;;10.55;2.58;;;;;;;27.13;30.93;94141.16;5123003;28;20016;-76
2022/07/21 09:07:26;;;;;;;3.00;1.83;;;;;;;27.22;31.62;94137.88;5123034;28;20039;-77
2022/07/21 09:10:03;;;;;;;4.43;2.05;;;;;;;27.32;30.56;94133.47;5122705;28;20023;-76
2022/07/21 09:12:29;;;;;;;8.40;3.72;;;;;;;27.47;31.33;94136.75;5122976;28;20111;-76
2022/07/21 09:15:14;;;;;;;8.70;2.00;;;;;;;27.50;29.54;94135.91;5122890;28;20027;-76
2022/07/21 09:17:39;;;;;;;5.53;2.05;;;;;;;27.56;31.25;94126.03;5122783;28;20047;-76
2022/07/21 09:20:21;;;;;;;23.65;2.70;;;;;;;27.65;30.14;94131.78;5122667;28;20318;-77
2022/07/21 09:23:10;;;;;;;6.70;2.40;;;;;;;27.70;29.44;94133.25;5122872;28;20306;-77
2022/07/21 09:25:51;;;;;;;13.30;2.08;;;;;;;27.68;29.90;94130.97;5122660;28;20128;-77
2022/07/21 09:28:19;;;;;;;6.55;2.53;;;;;;;27.66;29.23;94127.88;5124736;28;20217;-77
2022/07/21 09:30:52;;;;;;;4.10;2.03;;;;;;;27.70;28.91;94122.31;5126584;28;20019;-77
2022/07/21 09:33:23;;;;;;;5.50;2.38;;;;;;;27.74;27.71;94115.59;5126504;28;20019;-77
2022/07/21 09:36:03;;;;;;;5.80;2.28;;;;;;;27.82;28.68;94124.44;5126571;28;20266;-77
2022/07/21 09:38:31;;;;;;;5.78;1.85;;;;;;;27.93;27.90;94124.31;5126321;27;20034;-77
2022/07/21 09:41:14;;;;;;;7.80;2.17;;;;;;;28.06;28.75;94117.00;5126321;28;20218;-77
2022/07/21 09:43:46;;;;;;;6.32;2.42;;;;;;;28.18;27.12;94130.09;5126168;28;20043;-76
2022/07/21 09:46:24;;;;;;;6.03;2.10;;;;;;;28.28;27.28;94128.34;5126312;28;20095;-76
2022/07/21 09:48:56;;;;;;;4.10;2.50;;;;;;;28.36;27.08;94124.28;5126329;28;20233;-76
2022/07/21 09:51:23;;;;;;;5.40;2.67;;;;;;;28.24;27.32;94127.66;5126096;28;20366;-76
2022/07/21 09:53:52;;;;;;;10.27;2.42;;;;;;;28.26;29.29;94119.78;5126205;28;20032;-76
2022/07/21 09:56:18;;;;;;;3.85;2.00;;;;;;;28.27;27.43;94126.03;5126209;28;20218;-76
2022/07/21 09:58:48;;;;;;;3.67;2.08;;;;;;;28.34;29.01;94126.69;5125818;28;20242;-76
2022/07/21 10:01:15;;;;;;;5.25;2.30;;;;;;;28.30;27.35;94127.94;5125962;28;20023;-76
2022/07/21 10:03:45;;;;;;;4.35;2.50;;;;;;;28.26;27.37;94119.78;5125961;28;20030;-76
2022/07/21 10:06:12;;;;;;;3.55;2.10;;;;;;;28.33;28.10;94124.34;5125891;28;20079;-77
2022/07/21 10:08:38;;;;;;;4.72;2.05;;;;;;;28.37;28.05;94108.59;5126009;28;20026;-76
2022/07/21 10:11:05;;;;;;;5.97;2.95;;;;;;;28.51;26.24;94113.06;5125607;28;20039;-77
2022/07/21 10:13:30;;;;;;;7.38;2.40;;;;;;;28.59;26.29;94109.00;5125323;28;20027;-76
2022/07/21 10:15:57;;;;;;;4.03;2.00;;;;;;;28.55;27.41;94102.81;5125732;28;20361;-76
2022/07/21 10:18:35;;;;;;;6.82;2.08;;;;;;;28.41;27.82;94103.81;5125666;28;20051;-76
2022/07/21 10:21:35;;;;;;;6.15;2.10;;;;;;;28.57;28.69;94097.66;5125521;28;20115;-77
2022/07/21 10:24:01;;;;;;;3.55;2.22;;;;;;;28.56;27.39;94098.88;5125280;28;20039;-77
2022/07/21 10:26:26;;;;;;;4.15;2.33;;;;;;;28.56;27.02;94098.88;5125642;28;20030;-76
2022/07/21 10:28:52;;;;;;;4.78;1.73;;;;;;;28.61;28.17;94099.13;5125566;28;20064;-76
2022/07/21 10:31:23;;;;;;;4.95;2.10;;;;;;;28.67;27.89;94093.16;5125386;28;20062;-76
2022/07/21 10:33:48;;;;;;;5.60;2.25;;;;;;;28.68;27.46;94090.00;5125564;28;20344;-76
2022/07/21 10:36:26;;;;;;;3.15;1.88;;;;;;;28.76;27.05;94082.38;5125285;27;20031;-76
2022/07/21 10:39:15;;;;;;;4.47;1.90;;;;;;;28.63;27.06;94089.72;5124999;28;20024;-76
2022/07/21 10:41:44;;;;;;;4.45;1.95;;;;;;;28.75;26.54;94094.56;5125002;28;20042;-76
2022/07/21 10:44:28;;;;;;;6.05;1.90;;;;;;;28.85;26.17;94081.81;5125227;27;20224;-76
2022/07/21 10:47:02;;;;;;;2.25;1.42;;;;;;;28.89;26.21;94090.75;5125220;28;20088;-77
2022/07/21 10:49:44;;;;;;;4.30;1.90;;;;;;;28.92;27.25;94087.13;5124895;28;20049;-76
2022/07/21 10:52:38;;;;;;;4.50;1.90;;;;;;;28.89;26.58;94066.06;5124911;28;20040;-76
2022/07/21 10:55:09;;;;;;;3.15;1.92;;;;;;;28.89;26.25;94075.06;5115342;28;20063;-76
2022/07/21 10:57:35;;;;;;;3.42;1.70;;;;;;;29.06;26.59;94069.59;5124860;28;20314;-76
2022/07/21 11:00:28;;;;;;;5.70;1.88;;;;;;;29.11;26.82;94069.13;5124732;27;20023;-76
2022/07/21 11:03:02;;;;;;;3.95;2.20;;;;;;;29.17;26.97;94064.66;5123667;28;20032;-76
2022/07/21 11:05:31;;;;;;;5.50;2.10;;;;;;;29.23;27.00;94067.66;5124918;28;20229;-76
2022/07/21 11:08:11;;;;;;;7.03;2.08;;;;;;;29.29;24.47;94054.97;5124822;28;20045;-76
2022/07/21 11:11:06;;;;;;;3.85;1.88;;;;;;;29.28;25.28;94048.69;5124345;28;20023;-76
2022/07/21 11:14:00;;;;;;;4.35;2.35;;;;;;;29.37;24.67;94057.13;5124404;28;20036;-77
2022/07/21 11:16:49;;;;;;;4.35;2.10;;;;;;;29.45;24.10;94045.94;5124340;28;20111;-76
2022/07/21 11:19:34;;;;;;;8.18;2.35;;;;;;;29.53;25.01;94058.28;5121413;28;20046;-76
2022/07/21 11:22:23;;;;;;;7.32;3.17;;;;;;;29.54;25.39;94048.88;5124304;28;20043;-76
2022/07/21 11:25:04;;;;;;;11.00;2.05;;;;;;;29.51;24.34;94045.00;5124719;28;20019;-76
2022/07/21 11:27:32;;;;;;;3.00;1.80;;;;;;;29.63;25.00;94048.25;5124196;28;20023;-76
2022/07/21 11:30:00;;;;;;;3.28;1.85;;;;;;;29.68;24.90;94048.50;5124255;28;20218;-76
2022/07/21 11:32:26;;;;;;;5.45;1.70;;;;;;;29.72;25.31;94046.47;5124232;28;20029;-77
2022/07/21 11:34:53;;;;;;;6.95;2.10;;;;;;;29.79;25.25;94048.25;5124245;28;20192;-76
2022/07/21 11:37:30;;;;;;;4.05;2.03;;;;;;;29.83;25.77;94050.91;5124152;28;20031;-76